sensor_id;sensor_type;location;lat;lon;timestamp;P1;durP1;ratioP1;P2;durP2;ratioP2
18172;SDS011;9211;48.818;9.312;2022-07-23T00:01:46;6.90;;;4.50;;
18172;SDS011;9211;48.818;9.312;2022-07-23T00:04:13;9.52;;;4.07;;
18172;SDS011;9211;48.818;9.312;2022-07-23T00:06:40;5.97;;;4.40;;
18172;SDS011;9211;48.818;9.312;2022-07-23T00:09:07;7.50;;;4.07;;
18172;SDS011;9211;48.818;9.312;2022-07-23T00:11:34;5.85;;;4.32;;
18172;SDS011;9211;48.818;9.312;2022-07-23T00:14:01;8.93;;;4.32;;
18172;SDS011;9211;48.818;9.312;2022-07-23T00:16:28;6.45;;;3.95;;
18172;SDS011;9211;48.818;9.312;2022-07-23T00:18:56;5.10;;;4.07;;
18172;SDS011;9211;48.818;9.312;2022-07-23T00:21:26;6.57;;;4.40;;
18172;SDS011;9211;48.818;9.312;2022-07-23T00:23:53;5.13;;;3.97;;
18172;SDS011;9211;48.818;9.312;2022-07-23T00:26:20;5.15;;;3.65;;
18172;SDS011;9211;48.818;9.312;2022-07-23T00:28:47;5.45;;;3.47;;
18172;SDS011;9211;48.818;9.312;2022-07-23T00:31:14;4.93;;;3.28;;
18172;SDS011;9211;48.818;9.312;2022-07-23T00:33:41;5.15;;;3.20;;
18172;SDS011;9211;48.818;9.312;2022-07-23T00:36:10;4.10;;;3.08;;
18172;SDS011;9211;48.818;9.312;2022-07-23T00:38:37;6.90;;;3.13;;
18172;SDS011;9211;48.818;9.312;2022-07-23T00:41:04;4.53;;;3.00;;
18172;SDS011;9211;48.818;9.312;2022-07-23T00:43:31;4.55;;;3.00;;
18172;SDS011;9211;48.818;9.312;2022-07-23T00:45:58;4.28;;;3.00;;
18172;SDS011;9211;48.818;9.312;2022-07-23T00:48:25;4.35;;;3.10;;
18172;SDS011;9211;48.818;9.312;2022-07-23T00:50:52;4.25;;;3.10;;
18172;SDS011;9211;48.818;9.312;2022-07-23T00:53:21;4.40;;;3.38;;
18172;SDS011;9211;48.818;9.312;2022-07-23T00:55:48;3.80;;;3.13;;
18172;SDS011;9211;48.818;9.312;2022-07-23T00:58:16;3.88;;;3.10;;
18172;SDS011;9211;48.818;9.312;2022-07-23T01:00:44;6.60;;;3.33;;
18172;SDS011;9211;48.818;9.312;2022-07-23T01:03:11;4.18;;;3.08;;
18172;SDS011;9211;48.818;9.312;2022-07-23T01:05:38;5.45;;;3.35;;
18172;SDS011;9211;48.818;9.312;2022-07-23T01:08:06;5.45;;;3.20;;
18172;SDS011;9211;48.818;9.312;2022-07-23T01:10:34;4.55;;;3.03;;
18172;SDS011;9211;48.818;9.312;2022-07-23T01:13:03;4.13;;;3.30;;
18172;SDS011;9211;48.818;9.312;2022-07-23T01:15:32;4.53;;;3.45;;
18172;SDS011;9211;48.818;9.312;2022-07-23T01:17:59;4.88;;;3.40;;
18172;SDS011;9211;48.818;9.312;2022-07-23T01:20:28;4.22;;;3.30;;
18172;SDS011;9211;48.818;9.312;2022-07-23T01:22:57;5.05;;;3.20;;
18172;SDS011;9211;48.818;9.312;2022-07-23T01:25:24;4.90;;;3.20;;
18172;SDS011;9211;48.818;9.312;2022-07-23T01:28:01;3.97;;;3.00;;
18172;SDS011;9211;48.818;9.312;2022-07-23T01:30:28;4.53;;;3.20;;
18172;SDS011;9211;48.818;9.312;2022-07-23T01:32:57;4.50;;;3.10;;
18172;SDS011;9211;48.818;9.312;2022-07-23T01:35:24;4.38;;;2.90;;
18172;SDS011;9211;48.818;9.312;2022-07-23T01:37:55;4.00;;;3.10;;
18172;SDS011;9211;48.818;9.312;2022-07-23T01:40:24;4.45;;;3.30;;
18172;SDS011;9211;48.818;9.312;2022-07-23T01:42:52;3.67;;;3.00;;
18172;SDS011;9211;48.818;9.312;2022-07-23T01:45:20;3.83;;;3.00;;
18172;SDS011;9211;48.818;9.312;2022-07-23T01:47:50;5.10;;;3.17;;
18172;SDS011;9211;48.818;9.312;2022-07-23T01:50:17;6.82;;;3.50;;
18172;SDS011;9211;48.818;9.312;2022-07-23T01:53:01;4.82;;;3.03;;
18172;SDS011;9211;48.818;9.312;2022-07-23T01:55:28;6.17;;;3.60;;
18172;SDS011;9211;48.818;9.312;2022-07-23T01:57:56;5.40;;;3.30;;
18172;SDS011;9211;48.818;9.312;2022-07-23T02:03:09;4.25;;;3.25;;
18172;SDS011;9211;48.818;9.312;2022-07-23T02:05:36;5.33;;;3.40;;
18172;SDS011;9211;48.818;9.312;2022-07-23T02:08:05;4.73;;;3.33;;
18172;SDS011;9211;48.818;9.312;2022-07-23T02:10:35;5.70;;;3.15;;
18172;SDS011;9211;48.818;9.312;2022-07-23T02:13:03;6.37;;;3.20;;
18172;SDS011;9211;48.818;9.312;2022-07-23T02:15:30;4.47;;;3.37;;
18172;SDS011;9211;48.818;9.312;2022-07-23T02:17:58;4.15;;;3.20;;
18172;SDS011;9211;48.818;9.312;2022-07-23T02:20:25;4.60;;;3.28;;
18172;SDS011;9211;48.818;9.312;2022-07-23T02:22:52;4.68;;;3.40;;
18172;SDS011;9211;48.818;9.312;2022-07-23T02:25:22;5.38;;;3.40;;
18172;SDS011;9211;48.818;9.312;2022-07-23T02:27:55;4.63;;;3.03;;
18172;SDS011;9211;48.818;9.312;2022-07-23T02:30:22;5.22;;;3.50;;
18172;SDS011;9211;48.818;9.312;2022-07-23T02:32:50;4.80;;;3.10;;
18172;SDS011;9211;48.818;9.312;2022-07-23T02:35:17;6.97;;;3.30;;
18172;SDS011;9211;48.818;9.312;2022-07-23T02:37:44;4.93;;;3.40;;
18172;SDS011;9211;48.818;9.312;2022-07-23T02:40:11;5.25;;;3.35;;
18172;SDS011;9211;48.818;9.312;2022-07-23T02:42:42;4.60;;;3.47;;
18172;SDS011;9211;48.818;9.312;2022-07-23T02:45:10;8.38;;;3.50;;
18172;SDS011;9211;48.818;9.312;2022-07-23T02:47:38;4.28;;;3.40;;
18172;SDS011;9211;48.818;9.312;2022-07-23T02:50:06;6.53;;;3.70;;
18172;SDS011;9211;48.818;9.312;2022-07-23T02:52:33;4.18;;;3.40;;
18172;SDS011;9211;48.818;9.312;2022-07-23T02:55:01;5.40;;;3.53;;
18172;SDS011;9211;48.818;9.312;2022-07-23T02:57:28;5.50;;;3.50;;
18172;SDS011;9211;48.818;9.312;2022-07-23T02:59:57;5.38;;;3.67;;
18172;SDS011;9211;48.818;9.312;2022-07-23T03:02:24;5.35;;;3.53;;
18172;SDS011;9211;48.818;9.312;2022-07-23T03:04:52;5.50;;;3.42;;
18172;SDS011;9211;48.818;9.312;2022-07-23T03:07:19;4.80;;;3.50;;
18172;SDS011;9211;48.818;9.312;2022-07-23T03:09:53;5.47;;;3.63;;
18172;SDS011;9211;48.818;9.312;2022-07-23T03:12:21;6.38;;;3.65;;
18172;SDS011;9211;48.818;9.312;2022-07-23T03:14:49;5.45;;;3.30;;
18172;SDS011;9211;48.818;9.312;2022-07-23T03:17:18;5.90;;;3.83;;
18172;SDS011;9211;48.818;9.312;2022-07-23T03:19:46;4.70;;;3.47;;
18172;SDS011;9211;48.818;9.312;2022-07-23T03:22:13;5.17;;;3.57;;
18172;SDS011;9211;48.818;9.312;2022-07-23T03:24:40;5.60;;;3.50;;
18172;SDS011;9211;48.818;9.312;2022-07-23T03:27:29;4.70;;;3.50;;
18172;SDS011;9211;48.818;9.312;2022-07-23T03:29:58;4.57;;;3.45;;
18172;SDS011;9211;48.818;9.312;2022-07-23T03:32:27;4.97;;;3.60;;
18172;SDS011;9211;48.818;9.312;2022-07-23T03:34:55;4.90;;;3.70;;
18172;SDS011;9211;48.818;9.312;2022-07-23T03:37:22;4.88;;;3.85;;
18172;SDS011;9211;48.818;9.312;2022-07-23T03:39:49;6.03;;;3.90;;
18172;SDS011;9211;48.818;9.312;2022-07-23T03:42:16;5.30;;;3.90;;
18172;SDS011;9211;48.818;9.312;2022-07-23T03:44:45;6.70;;;3.78;;
18172;SDS011;9211;48.818;9.312;2022-07-23T03:47:12;5.13;;;4.05;;
18172;SDS011;9211;48.818;9.312;2022-07-23T03:49:41;5.95;;;3.65;;
18172;SDS011;9211;48.818;9.312;2022-07-23T03:52:08;6.35;;;3.90;;
18172;SDS011;9211;48.818;9.312;2022-07-23T03:54:35;5.70;;;3.70;;
18172;SDS011;9211;48.818;9.312;2022-07-23T03:57:02;5.75;;;3.88;;
18172;SDS011;9211;48.818;9.312;2022-07-23T03:59:29;5.50;;;3.90;;
18172;SDS011;9211;48.818;9.312;2022-07-23T04:01:56;4.78;;;3.70;;
18172;SDS011;9211;48.818;9.312;2022-07-23T04:04:24;5.80;;;3.90;;
18172;SDS011;9211;48.818;9.312;2022-07-23T04:06:53;5.30;;;3.92;;
18172;SDS011;9211;48.818;9.312;2022-07-23T04:09:21;6.60;;;4.00;;
18172;SDS011;9211;48.818;9.312;2022-07-23T04:11:48;6.07;;;3.97;;
18172;SDS011;9211;48.818;9.312;2022-07-23T04:14:16;5.90;;;3.97;;
18172;SDS011;9211;48.818;9.312;2022-07-23T04:16:45;5.90;;;3.97;;
18172;SDS011;9211;48.818;9.312;2022-07-23T04:19:12;7.10;;;3.70;;
18172;SDS011;9211;48.818;9.312;2022-07-23T04:21:53;6.68;;;4.07;;
18172;SDS011;9211;48.818;9.312;2022-07-23T04:24:20;5.82;;;3.95;;
18172;SDS011;9211;48.818;9.312;2022-07-23T04:26:47;9.27;;;4.65;;
18172;SDS011;9211;48.818;9.312;2022-07-23T04:29:14;6.75;;;4.28;;
18172;SDS011;9211;48.818;9.312;2022-07-23T04:31:41;7.05;;;4.10;;
18172;SDS011;9211;48.818;9.312;2022-07-23T04:34:08;6.60;;;4.10;;
18172;SDS011;9211;48.818;9.312;2022-07-23T04:36:35;6.95;;;4.20;;
18172;SDS011;9211;48.818;9.312;2022-07-23T04:39:04;6.80;;;3.83;;
18172;SDS011;9211;48.818;9.312;2022-07-23T04:41:32;7.27;;;4.07;;
18172;SDS011;9211;48.818;9.312;2022-07-23T04:43:59;7.32;;;4.30;;
18172;SDS011;9211;48.818;9.312;2022-07-23T04:46:26;6.07;;;4.18;;
18172;SDS011;9211;48.818;9.312;2022-07-23T04:48:55;6.78;;;4.22;;
18172;SDS011;9211;48.818;9.312;2022-07-23T04:51:22;5.85;;;4.50;;
18172;SDS011;9211;48.818;9.312;2022-07-23T04:53:49;5.78;;;4.25;;
18172;SDS011;9211;48.818;9.312;2022-07-23T04:56:17;7.00;;;4.30;;
18172;SDS011;9211;48.818;9.312;2022-07-23T04:58:44;5.97;;;4.07;;
18172;SDS011;9211;48.818;9.312;2022-07-23T05:01:11;5.05;;;3.88;;
18172;SDS011;9211;48.818;9.312;2022-07-23T05:03:38;6.68;;;3.90;;
18172;SDS011;9211;48.818;9.312;2022-07-23T05:06:05;7.45;;;4.15;;
18172;SDS011;9211;48.818;9.312;2022-07-23T05:08:33;6.32;;;4.00;;
18172;SDS011;9211;48.818;9.312;2022-07-23T05:11:00;5.55;;;3.88;;
18172;SDS011;9211;48.818;9.312;2022-07-23T05:13:29;4.90;;;3.90;;
18172;SDS011;9211;48.818;9.312;2022-07-23T05:16:00;5.25;;;4.10;;
18172;SDS011;9211;48.818;9.312;2022-07-23T05:18:27;6.60;;;4.20;;
18172;SDS011;9211;48.818;9.312;2022-07-23T05:20:54;5.27;;;3.93;;
18172;SDS011;9211;48.818;9.312;2022-07-23T05:23:22;6.43;;;4.30;;
18172;SDS011;9211;48.818;9.312;2022-07-23T05:25:49;5.72;;;4.00;;
18172;SDS011;9211;48.818;9.312;2022-07-23T05:28:16;5.72;;;4.00;;
18172;SDS011;9211;48.818;9.312;2022-07-23T05:30:44;4.50;;;3.50;;
18172;SDS011;9211;48.818;9.312;2022-07-23T05:33:14;5.63;;;4.00;;
18172;SDS011;9211;48.818;9.312;2022-07-23T05:35:41;7.07;;;4.20;;
18172;SDS011;9211;48.818;9.312;2022-07-23T05:38:20;7.20;;;4.22;;
18172;SDS011;9211;48.818;9.312;2022-07-23T05:40:48;6.05;;;4.28;;
18172;SDS011;9211;48.818;9.312;2022-07-23T05:43:15;6.97;;;4.10;;
18172;SDS011;9211;48.818;9.312;2022-07-23T05:45:42;6.45;;;4.18;;
18172;SDS011;9211;48.818;9.312;2022-07-23T05:48:10;6.70;;;4.18;;
18172;SDS011;9211;48.818;9.312;2022-07-23T05:50:48;5.95;;;4.20;;
18172;SDS011;9211;48.818;9.312;2022-07-23T05:53:29;7.72;;;4.15;;
18172;SDS011;9211;48.818;9.312;2022-07-23T05:56:14;6.47;;;4.28;;
18172;SDS011;9211;48.818;9.312;2022-07-23T05:58:42;7.65;;;4.65;;
18172;SDS011;9211;48.818;9.312;2022-07-23T06:01:10;6.18;;;4.05;;
18172;SDS011;9211;48.818;9.312;2022-07-23T06:03:47;5.57;;;4.38;;
18172;SDS011;9211;48.818;9.312;2022-07-23T06:06:14;6.50;;;4.27;;
18172;SDS011;9211;48.818;9.312;2022-07-23T06:08:42;5.47;;;4.00;;
18172;SDS011;9211;48.818;9.312;2022-07-23T06:11:10;6.60;;;4.13;;
18172;SDS011;9211;48.818;9.312;2022-07-23T06:13:37;5.75;;;4.20;;
18172;SDS011;9211;48.818;9.312;2022-07-23T06:16:06;6.70;;;4.47;;
18172;SDS011;9211;48.818;9.312;2022-07-23T06:18:33;6.78;;;4.40;;
18172;SDS011;9211;48.818;9.312;2022-07-23T06:21:01;7.05;;;4.70;;
18172;SDS011;9211;48.818;9.312;2022-07-23T06:23:31;7.03;;;4.93;;
18172;SDS011;9211;48.818;9.312;2022-07-23T06:25:58;5.70;;;4.45;;
18172;SDS011;9211;48.818;9.312;2022-07-23T06:28:25;7.53;;;4.70;;
18172;SDS011;9211;48.818;9.312;2022-07-23T06:30:52;7.55;;;4.35;;
18172;SDS011;9211;48.818;9.312;2022-07-23T06:33:19;5.97;;;4.20;;
18172;SDS011;9211;48.818;9.312;2022-07-23T06:35:46;7.50;;;4.40;;
18172;SDS011;9211;48.818;9.312;2022-07-23T06:38:14;6.25;;;4.30;;
18172;SDS011;9211;48.818;9.312;2022-07-23T06:40:41;8.13;;;4.90;;
18172;SDS011;9211;48.818;9.312;2022-07-23T06:43:09;8.00;;;4.63;;
18172;SDS011;9211;48.818;9.312;2022-07-23T06:45:36;5.40;;;4.38;;
18172;SDS011;9211;48.818;9.312;2022-07-23T06:48:03;7.68;;;4.70;;
18172;SDS011;9211;48.818;9.312;2022-07-23T06:50:31;5.93;;;4.63;;
18172;SDS011;9211;48.818;9.312;2022-07-23T06:52:58;6.28;;;4.47;;
18172;SDS011;9211;48.818;9.312;2022-07-23T06:55:26;8.57;;;4.78;;
18172;SDS011;9211;48.818;9.312;2022-07-23T06:57:53;8.00;;;4.68;;
18172;SDS011;9211;48.818;9.312;2022-07-23T07:00:21;6.33;;;4.60;;
18172;SDS011;9211;48.818;9.312;2022-07-23T07:02:48;6.60;;;4.93;;
18172;SDS011;9211;48.818;9.312;2022-07-23T07:05:15;10.73;;;4.90;;
18172;SDS011;9211;48.818;9.312;2022-07-23T07:07:42;6.30;;;5.03;;
18172;SDS011;9211;48.818;9.312;2022-07-23T07:10:09;7.95;;;5.10;;
18172;SDS011;9211;48.818;9.312;2022-07-23T07:12:37;11.05;;;5.13;;
18172;SDS011;9211;48.818;9.312;2022-07-23T07:15:05;8.27;;;5.30;;
18172;SDS011;9211;48.818;9.312;2022-07-23T07:17:32;8.00;;;5.00;;
18172;SDS011;9211;48.818;9.312;2022-07-23T07:19:59;7.78;;;5.05;;
18172;SDS011;9211;48.818;9.312;2022-07-23T07:22:26;9.10;;;5.28;;
18172;SDS011;9211;48.818;9.312;2022-07-23T07:24:53;9.80;;;5.80;;
18172;SDS011;9211;48.818;9.312;2022-07-23T07:27:20;8.20;;;5.45;;
18172;SDS011;9211;48.818;9.312;2022-07-23T07:29:49;10.10;;;5.47;;
18172;SDS011;9211;48.818;9.312;2022-07-23T07:32:16;7.75;;;5.50;;
18172;SDS011;9211;48.818;9.312;2022-07-23T07:34:43;9.03;;;5.20;;
18172;SDS011;9211;48.818;9.312;2022-07-23T07:37:10;6.53;;;4.80;;
18172;SDS011;9211;48.818;9.312;2022-07-23T07:39:37;7.80;;;4.85;;
18172;SDS011;9211;48.818;9.312;2022-07-23T07:42:04;7.88;;;5.03;;
18172;SDS011;9211;48.818;9.312;2022-07-23T07:44:31;6.70;;;4.80;;
18172;SDS011;9211;48.818;9.312;2022-07-23T07:46:59;6.47;;;5.15;;
18172;SDS011;9211;48.818;9.312;2022-07-23T07:49:26;7.78;;;5.05;;
18172;SDS011;9211;48.818;9.312;2022-07-23T07:51:53;7.32;;;4.85;;
18172;SDS011;9211;48.818;9.312;2022-07-23T07:54:20;7.00;;;5.13;;
18172;SDS011;9211;48.818;9.312;2022-07-23T07:56:47;7.53;;;4.57;;
18172;SDS011;9211;48.818;9.312;2022-07-23T07:59:14;8.55;;;5.13;;
18172;SDS011;9211;48.818;9.312;2022-07-23T08:01:41;8.47;;;5.37;;
18172;SDS011;9211;48.818;9.312;2022-07-23T08:04:09;8.80;;;5.80;;
18172;SDS011;9211;48.818;9.312;2022-07-23T08:06:36;9.20;;;5.78;;
18172;SDS011;9211;48.818;9.312;2022-07-23T08:09:03;8.25;;;5.78;;
18172;SDS011;9211;48.818;9.312;2022-07-23T08:11:30;7.82;;;5.50;;
18172;SDS011;9211;48.818;9.312;2022-07-23T08:13:57;7.93;;;5.57;;
18172;SDS011;9211;48.818;9.312;2022-07-23T08:16:24;7.85;;;5.90;;
18172;SDS011;9211;48.818;9.312;2022-07-23T08:18:51;8.10;;;5.30;;
18172;SDS011;9211;48.818;9.312;2022-07-23T08:21:19;7.32;;;5.40;;
18172;SDS011;9211;48.818;9.312;2022-07-23T08:23:46;7.43;;;5.53;;
18172;SDS011;9211;48.818;9.312;2022-07-23T08:26:13;8.85;;;5.78;;
18172;SDS011;9211;48.818;9.312;2022-07-23T08:28:40;7.05;;;5.30;;
18172;SDS011;9211;48.818;9.312;2022-07-23T08:31:07;7.33;;;5.30;;
18172;SDS011;9211;48.818;9.312;2022-07-23T08:33:36;7.57;;;4.80;;
18172;SDS011;9211;48.818;9.312;2022-07-23T08:36:04;7.65;;;4.82;;
18172;SDS011;9211;48.818;9.312;2022-07-23T08:38:32;6.73;;;4.60;;
18172;SDS011;9211;48.818;9.312;2022-07-23T08:41:00;7.35;;;4.93;;
18172;SDS011;9211;48.818;9.312;2022-07-23T08:43:30;7.43;;;4.80;;
18172;SDS011;9211;48.818;9.312;2022-07-23T08:46:01;6.15;;;4.70;;
18172;SDS011;9211;48.818;9.312;2022-07-23T08:48:29;6.47;;;4.70;;
18172;SDS011;9211;48.818;9.312;2022-07-23T08:50:58;6.55;;;4.68;;
18172;SDS011;9211;48.818;9.312;2022-07-23T08:53:27;6.10;;;5.00;;
18172;SDS011;9211;48.818;9.312;2022-07-23T08:55:57;7.10;;;5.07;;
18172;SDS011;9211;48.818;9.312;2022-07-23T08:58:26;6.60;;;5.25;;
18172;SDS011;9211;48.818;9.312;2022-07-23T09:00:54;7.45;;;5.00;;
18172;SDS011;9211;48.818;9.312;2022-07-23T09:03:22;8.23;;;5.20;;
18172;SDS011;9211;48.818;9.312;2022-07-23T09:05:51;7.28;;;4.95;;
18172;SDS011;9211;48.818;9.312;2022-07-23T09:08:19;6.70;;;4.72;;
18172;SDS011;9211;48.818;9.312;2022-07-23T09:10:51;6.15;;;4.40;;
18172;SDS011;9211;48.818;9.312;2022-07-23T09:13:25;7.70;;;4.60;;
18172;SDS011;9211;48.818;9.312;2022-07-23T09:15:55;5.70;;;4.53;;
18172;SDS011;9211;48.818;9.312;2022-07-23T09:18:30;6.00;;;4.97;;
18172;SDS011;9211;48.818;9.312;2022-07-23T09:21:06;7.25;;;4.75;;
18172;SDS011;9211;48.818;9.312;2022-07-23T09:23:37;5.87;;;4.70;;
18172;SDS011;9211;48.818;9.312;2022-07-23T09:26:19;6.93;;;4.88;;
18172;SDS011;9211;48.818;9.312;2022-07-23T09:28:53;7.60;;;4.78;;
18172;SDS011;9211;48.818;9.312;2022-07-23T09:31:22;6.28;;;4.40;;
18172;SDS011;9211;48.818;9.312;2022-07-23T09:33:50;6.72;;;4.80;;
18172;SDS011;9211;48.818;9.312;2022-07-23T09:36:26;5.30;;;4.30;;
18172;SDS011;9211;48.818;9.312;2022-07-23T09:38:54;6.05;;;4.85;;
18172;SDS011;9211;48.818;9.312;2022-07-23T09:41:21;16.23;;;10.50;;
18172;SDS011;9211;48.818;9.312;2022-07-23T09:43:55;24.23;;;14.93;;
18172;SDS011;9211;48.818;9.312;2022-07-23T09:46:23;19.35;;;12.60;;
18172;SDS011;9211;48.818;9.312;2022-07-23T09:48:51;14.45;;;9.52;;
18172;SDS011;9211;48.818;9.312;2022-07-23T09:51:19;11.60;;;8.10;;
18172;SDS011;9211;48.818;9.312;2022-07-23T09:53:51;9.38;;;6.60;;
18172;SDS011;9211;48.818;9.312;2022-07-23T09:56:18;6.20;;;4.90;;
18172;SDS011;9211;48.818;9.312;2022-07-23T09:58:48;5.18;;;4.13;;
18172;SDS011;9211;48.818;9.312;2022-07-23T10:01:18;6.35;;;4.57;;
18172;SDS011;9211;48.818;9.312;2022-07-23T10:03:46;6.13;;;4.50;;
18172;SDS011;9211;48.818;9.312;2022-07-23T10:06:37;6.55;;;4.40;;
18172;SDS011;9211;48.818;9.312;2022-07-23T10:09:25;5.78;;;4.32;;
18172;SDS011;9211;48.818;9.312;2022-07-23T10:12:26;5.32;;;4.60;;
18172;SDS011;9211;48.818;9.312;2022-07-23T10:15:09;6.10;;;4.37;;
18172;SDS011;9211;48.818;9.312;2022-07-23T10:17:39;5.55;;;4.47;;
18172;SDS011;9211;48.818;9.312;2022-07-23T10:20:09;5.50;;;4.22;;
18172;SDS011;9211;48.818;9.312;2022-07-23T10:22:37;6.95;;;4.00;;
18172;SDS011;9211;48.818;9.312;2022-07-23T10:25:09;7.90;;;4.20;;
18172;SDS011;9211;48.818;9.312;2022-07-23T10:27:43;5.47;;;4.50;;
18172;SDS011;9211;48.818;9.312;2022-07-23T10:30:22;5.65;;;4.25;;
18172;SDS011;9211;48.818;9.312;2022-07-23T10:33:01;5.13;;;4.00;;
18172;SDS011;9211;48.818;9.312;2022-07-23T10:35:47;6.45;;;4.28;;
18172;SDS011;9211;48.818;9.312;2022-07-23T10:38:20;6.73;;;4.10;;
18172;SDS011;9211;48.818;9.312;2022-07-23T10:40:54;4.88;;;4.15;;
18172;SDS011;9211;48.818;9.312;2022-07-23T10:43:22;6.05;;;4.15;;
18172;SDS011;9211;48.818;9.312;2022-07-23T10:45:49;6.72;;;3.97;;
18172;SDS011;9211;48.818;9.312;2022-07-23T10:48:19;5.83;;;3.97;;
18172;SDS011;9211;48.818;9.312;2022-07-23T10:51:06;5.88;;;3.90;;
18172;SDS011;9211;48.818;9.312;2022-07-23T10:53:53;5.03;;;4.10;;
18172;SDS011;9211;48.818;9.312;2022-07-23T10:59:15;6.97;;;3.88;;
18172;SDS011;9211;48.818;9.312;2022-07-23T11:01:43;5.60;;;4.03;;
18172;SDS011;9211;48.818;9.312;2022-07-23T11:04:12;5.82;;;4.50;;
18172;SDS011;9211;48.818;9.312;2022-07-23T11:09:38;5.88;;;3.90;;
18172;SDS011;9211;48.818;9.312;2022-07-23T11:15:05;5.43;;;4.07;;
18172;SDS011;9211;48.818;9.312;2022-07-23T11:17:34;6.90;;;4.30;;
18172;SDS011;9211;48.818;9.312;2022-07-23T11:20:23;5.63;;;4.35;;
18172;SDS011;9211;48.818;9.312;2022-07-23T11:22:51;6.10;;;4.40;;
18172;SDS011;9211;48.818;9.312;2022-07-23T11:25:31;5.93;;;4.45;;
18172;SDS011;9211;48.818;9.312;2022-07-23T11:28:13;5.53;;;4.43;;
18172;SDS011;9211;48.818;9.312;2022-07-23T11:30:42;6.70;;;4.68;;
18172;SDS011;9211;48.818;9.312;2022-07-23T11:33:18;7.25;;;4.90;;
18172;SDS011;9211;48.818;9.312;2022-07-23T11:35:49;6.70;;;4.70;;
18172;SDS011;9211;48.818;9.312;2022-07-23T11:38:25;5.75;;;4.35;;
18172;SDS011;9211;48.818;9.312;2022-07-23T11:40:53;5.97;;;4.28;;
18172;SDS011;9211;48.818;9.312;2022-07-23T11:43:23;6.85;;;4.90;;
18172;SDS011;9211;48.818;9.312;2022-07-23T11:45:51;6.05;;;4.40;;
18172;SDS011;9211;48.818;9.312;2022-07-23T11:48:20;6.35;;;4.30;;
18172;SDS011;9211;48.818;9.312;2022-07-23T11:50:50;5.57;;;4.05;;
18172;SDS011;9211;48.818;9.312;2022-07-23T11:53:22;5.20;;;3.80;;
18172;SDS011;9211;48.818;9.312;2022-07-23T11:55:50;5.47;;;4.32;;
18172;SDS011;9211;48.818;9.312;2022-07-23T11:58:17;20.23;;;11.38;;
18172;SDS011;9211;48.818;9.312;2022-07-23T12:00:45;6.05;;;4.82;;
18172;SDS011;9211;48.818;9.312;2022-07-23T12:03:12;7.32;;;5.13;;
18172;SDS011;9211;48.818;9.312;2022-07-23T12:05:39;5.15;;;4.13;;
18172;SDS011;9211;48.818;9.312;2022-07-23T12:08:08;5.82;;;4.05;;
18172;SDS011;9211;48.818;9.312;2022-07-23T12:10:37;6.15;;;4.07;;
18172;SDS011;9211;48.818;9.312;2022-07-23T12:13:08;6.18;;;4.10;;
18172;SDS011;9211;48.818;9.312;2022-07-23T12:15:37;6.40;;;4.30;;
18172;SDS011;9211;48.818;9.312;2022-07-23T12:18:07;6.38;;;4.25;;
18172;SDS011;9211;48.818;9.312;2022-07-23T12:20:38;5.57;;;4.50;;
18172;SDS011;9211;48.818;9.312;2022-07-23T12:23:09;6.82;;;4.45;;
18172;SDS011;9211;48.818;9.312;2022-07-23T12:25:38;5.33;;;4.20;;
18172;SDS011;9211;48.818;9.312;2022-07-23T12:28:08;6.60;;;4.47;;
18172;SDS011;9211;48.818;9.312;2022-07-23T12:30:37;5.07;;;3.92;;
18172;SDS011;9211;48.818;9.312;2022-07-23T12:33:07;5.90;;;4.50;;
18172;SDS011;9211;48.818;9.312;2022-07-23T12:35:36;6.57;;;4.30;;
18172;SDS011;9211;48.818;9.312;2022-07-23T12:38:07;5.53;;;4.33;;
18172;SDS011;9211;48.818;9.312;2022-07-23T12:40:37;6.40;;;4.53;;
18172;SDS011;9211;48.818;9.312;2022-07-23T12:43:10;5.93;;;4.43;;
18172;SDS011;9211;48.818;9.312;2022-07-23T12:45:47;5.22;;;4.40;;
18172;SDS011;9211;48.818;9.312;2022-07-23T12:48:20;5.93;;;4.32;;
18172;SDS011;9211;48.818;9.312;2022-07-23T12:50:53;4.88;;;4.03;;
18172;SDS011;9211;48.818;9.312;2022-07-23T12:53:23;5.63;;;4.32;;
18172;SDS011;9211;48.818;9.312;2022-07-23T12:55:56;7.15;;;4.53;;
18172;SDS011;9211;48.818;9.312;2022-07-23T12:58:25;6.60;;;4.25;;
18172;SDS011;9211;48.818;9.312;2022-07-23T13:01:03;5.82;;;4.50;;
18172;SDS011;9211;48.818;9.312;2022-07-23T13:03:32;6.13;;;4.45;;
18172;SDS011;9211;48.818;9.312;2022-07-23T13:06:02;5.68;;;4.55;;
18172;SDS011;9211;48.818;9.312;2022-07-23T13:08:33;4.97;;;4.00;;
18172;SDS011;9211;48.818;9.312;2022-07-23T13:11:01;5.38;;;4.30;;
18172;SDS011;9211;48.818;9.312;2022-07-23T13:13:30;6.78;;;4.32;;
18172;SDS011;9211;48.818;9.312;2022-07-23T13:15:59;6.07;;;4.35;;
18172;SDS011;9211;48.818;9.312;2022-07-23T13:18:26;4.90;;;4.10;;
18172;SDS011;9211;48.818;9.312;2022-07-23T13:20:54;6.55;;;4.60;;
18172;SDS011;9211;48.818;9.312;2022-07-23T13:23:22;6.13;;;4.60;;
18172;SDS011;9211;48.818;9.312;2022-07-23T13:25:50;6.38;;;5.00;;
18172;SDS011;9211;48.818;9.312;2022-07-23T13:28:19;5.32;;;4.55;;
18172;SDS011;9211;48.818;9.312;2022-07-23T13:30:47;6.15;;;4.63;;
18172;SDS011;9211;48.818;9.312;2022-07-23T13:33:16;7.18;;;4.85;;
18172;SDS011;9211;48.818;9.312;2022-07-23T13:35:47;8.32;;;5.07;;
18172;SDS011;9211;48.818;9.312;2022-07-23T13:38:15;5.88;;;4.60;;
18172;SDS011;9211;48.818;9.312;2022-07-23T13:40:46;6.72;;;4.50;;
18172;SDS011;9211;48.818;9.312;2022-07-23T13:43:16;6.20;;;4.60;;
18172;SDS011;9211;48.818;9.312;2022-07-23T13:45:47;5.95;;;4.43;;
18172;SDS011;9211;48.818;9.312;2022-07-23T13:48:15;9.32;;;4.70;;
18172;SDS011;9211;48.818;9.312;2022-07-23T13:50:42;6.63;;;4.70;;
18172;SDS011;9211;48.818;9.312;2022-07-23T13:53:11;6.43;;;4.93;;
18172;SDS011;9211;48.818;9.312;2022-07-23T13:55:39;7.00;;;5.13;;
18172;SDS011;9211;48.818;9.312;2022-07-23T13:58:07;6.38;;;4.68;;
18172;SDS011;9211;48.818;9.312;2022-07-23T14:00:37;6.20;;;5.03;;
18172;SDS011;9211;48.818;9.312;2022-07-23T14:03:05;6.82;;;5.03;;
18172;SDS011;9211;48.818;9.312;2022-07-23T14:05:33;7.35;;;5.30;;
18172;SDS011;9211;48.818;9.312;2022-07-23T14:08:00;7.23;;;5.07;;
18172;SDS011;9211;48.818;9.312;2022-07-23T14:10:28;5.20;;;4.60;;
18172;SDS011;9211;48.818;9.312;2022-07-23T14:12:55;6.97;;;5.25;;
18172;SDS011;9211;48.818;9.312;2022-07-23T14:15:23;6.90;;;5.30;;
18172;SDS011;9211;48.818;9.312;2022-07-23T14:17:53;6.38;;;5.43;;
18172;SDS011;9211;48.818;9.312;2022-07-23T14:20:20;6.43;;;5.18;;
18172;SDS011;9211;48.818;9.312;2022-07-23T14:22:48;6.20;;;4.90;;
18172;SDS011;9211;48.818;9.312;2022-07-23T14:25:16;7.20;;;5.47;;
18172;SDS011;9211;48.818;9.312;2022-07-23T14:27:46;6.70;;;5.47;;
18172;SDS011;9211;48.818;9.312;2022-07-23T14:30:13;7.45;;;5.25;;
18172;SDS011;9211;48.818;9.312;2022-07-23T14:32:41;7.30;;;5.53;;
18172;SDS011;9211;48.818;9.312;2022-07-23T14:35:09;6.97;;;5.05;;
18172;SDS011;9211;48.818;9.312;2022-07-23T14:37:38;6.40;;;5.15;;
18172;SDS011;9211;48.818;9.312;2022-07-23T14:40:06;6.45;;;5.38;;
18172;SDS011;9211;48.818;9.312;2022-07-23T14:42:33;6.47;;;5.23;;
18172;SDS011;9211;48.818;9.312;2022-07-23T14:45:00;6.57;;;5.00;;
18172;SDS011;9211;48.818;9.312;2022-07-23T14:47:27;7.32;;;5.15;;
18172;SDS011;9211;48.818;9.312;2022-07-23T14:49:54;6.57;;;5.13;;
18172;SDS011;9211;48.818;9.312;2022-07-23T14:52:22;5.72;;;4.82;;
18172;SDS011;9211;48.818;9.312;2022-07-23T14:54:49;5.00;;;4.47;;
18172;SDS011;9211;48.818;9.312;2022-07-23T14:57:16;5.45;;;4.70;;
18172;SDS011;9211;48.818;9.312;2022-07-23T14:59:44;7.37;;;4.87;;
18172;SDS011;9211;48.818;9.312;2022-07-23T15:02:10;7.05;;;5.00;;
18172;SDS011;9211;48.818;9.312;2022-07-23T15:04:37;6.00;;;4.65;;
18172;SDS011;9211;48.818;9.312;2022-07-23T15:07:05;6.60;;;4.97;;
18172;SDS011;9211;48.818;9.312;2022-07-23T15:09:33;6.85;;;5.22;;
18172;SDS011;9211;48.818;9.312;2022-07-23T15:12:00;6.80;;;5.15;;
18172;SDS011;9211;48.818;9.312;2022-07-23T15:14:27;6.60;;;5.07;;
18172;SDS011;9211;48.818;9.312;2022-07-23T15:16:54;6.75;;;5.00;;
18172;SDS011;9211;48.818;9.312;2022-07-23T15:19:21;7.18;;;4.93;;
18172;SDS011;9211;48.818;9.312;2022-07-23T15:21:48;5.70;;;4.78;;
18172;SDS011;9211;48.818;9.312;2022-07-23T15:24:15;7.03;;;4.93;;